createdAt,value
2022-11-17T00:01:58.057Z,2.83
2022-11-17T00:04:28.048Z,3.10
2022-11-17T00:06:57.520Z,2.83
2022-11-17T00:09:29.515Z,3.53
2022-11-17T00:12:11.449Z,2.80
2022-11-17T00:14:41.409Z,3.23
2022-11-17T00:17:12.455Z,3.37
2022-11-17T00:19:54.698Z,3.30
2022-11-17T00:22:25.525Z,3.00
2022-11-17T00:24:57.624Z,3.77
2022-11-17T00:27:27.289Z,3.73
2022-11-17T00:29:57.054Z,3.80
2022-11-17T00:32:39.060Z,3.00
2022-11-17T00:35:09.434Z,3.23
2022-11-17T00:38:00.477Z,4.50
2022-11-17T00:40:34.401Z,3.80
2022-11-17T00:43:04.119Z,5.40
2022-11-17T00:45:33.630Z,4.07
2022-11-17T00:48:03.859Z,3.40
2022-11-17T00:50:33.338Z,3.50
2022-11-17T00:53:02.813Z,4.07
2022-11-17T00:55:34.955Z,3.73
2022-11-17T00:58:04.509Z,3.90
2022-11-17T01:00:34.124Z,4.03
2022-11-17T01:03:03.826Z,5.10
2022-11-17T01:05:33.367Z,5.83
2022-11-17T01:08:02.828Z,8.70
2022-11-17T01:10:37.139Z,7.80
2022-11-17T01:13:06.778Z,5.20
2022-11-17T01:15:36.351Z,4.73
2022-11-17T01:18:06.048Z,4.53
2022-11-17T01:20:36.131Z,4.80
2022-11-17T01:23:05.592Z,3.90
2022-11-17T01:25:38.238Z,4.43
2022-11-17T01:28:07.669Z,3.70
2022-11-17T01:30:37.730Z,4.57
2022-11-17T01:33:07.245Z,4.37
2022-11-17T01:35:37.440Z,3.40
2022-11-17T01:38:06.900Z,4.40
2022-11-17T01:40:39.424Z,5.00
2022-11-17T01:43:11.562Z,3.93
2022-11-17T01:45:41.372Z,4.30
2022-11-17T01:48:11.019Z,4.90
2022-11-17T01:50:42.528Z,4.47
2022-11-17T01:53:14.487Z,5.30
2022-11-17T01:55:49.057Z,4.97
2022-11-17T01:58:20.526Z,4.47
2022-11-17T02:00:50.274Z,4.90
2022-11-17T02:03:19.784Z,5.40
2022-11-17T02:05:53.292Z,5.63
2022-11-17T02:08:24.052Z,5.40
2022-11-17T02:10:56.588Z,5.30
2022-11-17T02:13:26.435Z,5.40
2022-11-17T02:15:55.953Z,5.20
2022-11-17T02:18:25.433Z,5.60
2022-11-17T02:21:04.503Z,4.97
2022-11-17T02:23:54.239Z,7.10
2022-11-17T02:26:50.768Z,5.20
2022-11-17T02:29:27.272Z,5.83
2022-11-17T02:32:04.729Z,5.40
2022-11-17T02:34:38.237Z,5.03
2022-11-17T02:37:12.897Z,5.00
2022-11-17T02:39:46.834Z,5.10
2022-11-17T02:42:19.240Z,5.30
2022-11-17T02:44:55.446Z,5.60
2022-11-17T02:47:26.982Z,5.00
2022-11-17T02:49:58.203Z,5.37
2022-11-17T02:52:28.264Z,5.13
2022-11-17T02:55:02.779Z,6.00
2022-11-17T02:57:32.747Z,5.97
2022-11-17T03:00:06.900Z,5.67
2022-11-17T03:02:46.427Z,6.00
2022-11-17T03:05:18.174Z,6.00
2022-11-17T03:08:01.367Z,6.10
2022-11-17T03:10:37.794Z,6.33
2022-11-17T03:13:12.423Z,6.20
2022-11-17T03:15:51.137Z,5.47
2022-11-17T03:18:23.893Z,5.90
2022-11-17T03:21:01.268Z,6.50
2022-11-17T03:23:35.425Z,5.77
2022-11-17T03:26:05.635Z,5.47
2022-11-17T03:28:35.595Z,5.20
2022-11-17T03:31:09.805Z,5.83
2022-11-17T03:33:40.807Z,6.07
2022-11-17T03:36:13.379Z,6.03
2022-11-17T03:38:47.150Z,5.60
2022-11-17T03:41:17.175Z,4.17
2022-11-17T03:43:49.554Z,13.90
2022-11-17T03:46:22.747Z,7.10
2022-11-17T03:48:56.848Z,6.83
2022-11-17T03:51:27.673Z,8.13
2022-11-17T03:53:57.531Z,6.10
2022-11-17T03:56:34.080Z,5.97
2022-11-17T03:59:06.344Z,6.13
2022-11-17T04:01:39.683Z,6.43
2022-11-17T04:04:09.187Z,5.73
2022-11-17T04:06:38.572Z,6.07
2022-11-17T04:09:08.041Z,5.43
2022-11-17T04:11:49.924Z,6.23
2022-11-17T04:14:31.801Z,6.60
2022-11-17T04:17:04.015Z,6.47
2022-11-17T04:19:33.477Z,6.10
2022-11-17T04:22:02.886Z,6.00
2022-11-17T04:24:32.263Z,5.80
2022-11-17T04:27:14.123Z,6.70
2022-11-17T04:29:43.757Z,5.60
2022-11-17T04:32:16.225Z,5.70
2022-11-17T04:34:45.731Z,6.10
2022-11-17T04:37:17.559Z,6.40
2022-11-17T04:39:47.535Z,5.90
2022-11-17T04:42:14.381Z,5.80
2022-11-17T04:44:43.796Z,5.97
2022-11-17T04:47:15.787Z,5.80
2022-11-17T04:49:45.192Z,6.30
2022-11-17T04:52:14.600Z,6.30
2022-11-17T04:54:44.061Z,6.47
2022-11-17T04:57:13.475Z,6.47
2022-11-17T04:59:42.840Z,5.53
2022-11-17T05:02:14.894Z,5.77
2022-11-17T05:04:59.420Z,6.20
2022-11-17T05:07:28.821Z,6.77
2022-11-17T05:09:58.249Z,5.87
2022-11-17T05:12:40.132Z,6.20
2022-11-17T05:15:10.655Z,6.73
2022-11-17T05:17:40.017Z,7.00
2022-11-17T05:20:10.501Z,6.37
2022-11-17T05:22:52.463Z,6.57
2022-11-17T05:25:21.918Z,6.73
2022-11-17T05:27:51.326Z,7.23
2022-11-17T05:30:20.974Z,6.70
2022-11-17T05:32:52.997Z,6.70
2022-11-17T05:35:22.393Z,6.10
2022-11-17T05:37:51.806Z,6.43
2022-11-17T05:40:21.323Z,7.10
2022-11-17T05:42:55.804Z,6.90
2022-11-17T05:45:26.511Z,7.30
2022-11-17T05:47:58.491Z,7.43
2022-11-17T05:50:27.973Z,6.90
2022-11-17T05:52:57.343Z,7.03
2022-11-17T05:55:27.235Z,9.13
2022-11-17T05:57:57.474Z,7.47
2022-11-17T06:00:27.002Z,6.30
2022-11-17T06:03:02.105Z,7.10
2022-11-17T06:05:31.522Z,7.00
2022-11-17T06:08:01.049Z,6.70
2022-11-17T06:10:30.897Z,7.50
2022-11-17T06:13:00.369Z,7.50
2022-11-17T06:15:29.785Z,7.50
2022-11-17T06:18:03.224Z,8.07
2022-11-17T06:20:36.404Z,7.40
2022-11-17T06:23:07.815Z,8.10
2022-11-17T06:25:38.501Z,8.17
2022-11-17T06:28:12.132Z,7.70
2022-11-17T06:30:41.983Z,7.40
2022-11-17T06:33:16.503Z,7.67
2022-11-17T06:35:47.073Z,9.13
2022-11-17T06:38:16.509Z,7.63
2022-11-17T06:40:45.950Z,8.63
2022-11-17T06:43:15.369Z,8.07
2022-11-17T06:45:46.339Z,8.83
2022-11-17T06:48:25.219Z,8.57
2022-11-17T06:50:54.588Z,8.50
2022-11-17T06:53:26.655Z,7.97
2022-11-17T06:56:03.204Z,8.50
2022-11-17T06:58:33.529Z,8.10
2022-11-17T07:01:10.621Z,8.40
2022-11-17T07:03:43.852Z,7.90
2022-11-17T07:06:13.725Z,7.90
2022-11-17T07:08:43.214Z,7.70
2022-11-17T07:11:15.006Z,8.10
2022-11-17T07:13:44.405Z,5.43
2022-11-17T07:16:21.672Z,8.60
2022-11-17T07:18:55.552Z,6.43
2022-11-17T07:21:25.176Z,7.80
2022-11-17T07:23:54.668Z,7.70
2022-11-17T07:26:24.100Z,8.17
2022-11-17T07:28:53.563Z,9.90
2022-11-17T07:31:23.274Z,8.00
2022-11-17T07:33:55.970Z,7.90
2022-11-17T07:36:25.768Z,7.50
2022-11-17T07:38:55.154Z,7.43
2022-11-17T07:41:24.580Z,7.67
2022-11-17T07:43:54.011Z,6.70
2022-11-17T07:46:23.451Z,7.63
2022-11-17T07:48:56.114Z,7.53
2022-11-17T07:51:26.405Z,7.30
2022-11-17T07:53:56.173Z,8.00
2022-11-17T07:56:25.614Z,12.63
2022-11-17T07:58:56.492Z,9.17
2022-11-17T08:01:27.490Z,7.30
2022-11-17T08:03:59.781Z,13.30
2022-11-17T08:06:29.415Z,12.43
2022-11-17T08:08:59.128Z,8.13
2022-11-17T08:11:31.318Z,7.30
2022-11-17T08:14:00.763Z,6.60
2022-11-17T08:16:30.896Z,8.20
2022-11-17T08:19:04.230Z,8.30
2022-11-17T08:21:33.694Z,8.60
2022-11-17T08:24:03.158Z,7.60
2022-11-17T08:26:32.671Z,7.50
2022-11-17T08:29:02.123Z,7.07
2022-11-17T08:31:31.558Z,7.40
2022-11-17T08:34:03.627Z,7.77
2022-11-17T08:36:33.065Z,8.23
2022-11-17T08:39:02.517Z,7.20
2022-11-17T08:41:32.174Z,7.30
2022-11-17T08:44:01.611Z,7.30
2022-11-17T08:46:31.112Z,7.67
2022-11-17T08:49:03.961Z,7.10
2022-11-17T08:51:33.489Z,8.53
2022-11-17T08:54:03.016Z,7.70
2022-11-17T08:56:32.568Z,6.77
2022-11-17T08:59:02.075Z,8.30
2022-11-17T09:01:31.936Z,7.87
2022-11-17T09:04:05.338Z,8.07
2022-11-17T09:06:34.934Z,7.70
2022-11-17T09:09:04.702Z,7.60
2022-11-17T09:11:34.298Z,8.20
2022-11-17T09:14:03.790Z,7.47
2022-11-17T09:16:33.409Z,7.80
2022-11-17T09:19:05.615Z,7.70
2022-11-17T09:21:35.386Z,7.60
2022-11-17T09:24:04.860Z,8.47
2022-11-17T09:26:35.490Z,8.00
2022-11-17T09:29:05.542Z,8.07
2022-11-17T09:31:34.987Z,6.20
2022-11-17T09:34:08.118Z,8.20
2022-11-17T09:36:37.929Z,8.60
2022-11-17T09:39:07.504Z,7.40
2022-11-17T09:41:40.815Z,8.20
2022-11-17T09:44:18.378Z,8.70
2022-11-17T09:46:59.479Z,7.30
2022-11-17T09:49:37.298Z,7.67
2022-11-17T09:52:12.310Z,7.90
2022-11-17T09:54:46.578Z,8.23
2022-11-17T09:57:23.539Z,8.57
2022-11-17T09:59:57.447Z,8.33
2022-11-17T10:02:27.687Z,8.60
2022-11-17T10:04:59.888Z,8.47
2022-11-17T10:07:29.592Z,7.90
2022-11-17T10:09:59.617Z,9.23
2022-11-17T10:12:36.042Z,7.67
2022-11-17T10:15:23.063Z,8.70
2022-11-17T10:17:53.560Z,8.97
2022-11-17T10:20:25.739Z,8.80
2022-11-17T10:22:56.423Z,10.20
2022-11-17T10:25:39.423Z,7.70
2022-11-17T10:28:10.534Z,9.10
2022-11-17T10:30:40.105Z,8.40
2022-11-17T10:33:09.590Z,9.90
2022-11-17T10:35:42.694Z,7.40
2022-11-17T10:38:20.976Z,9.63
2022-11-17T10:40:51.813Z,9.07
2022-11-17T10:43:26.813Z,8.90
2022-11-17T10:45:57.607Z,8.73
2022-11-17T10:48:29.877Z,9.50
2022-11-17T10:51:03.376Z,8.90
2022-11-17T10:53:45.109Z,7.67
2022-11-17T10:56:19.003Z,9.47
2022-11-17T10:59:00.759Z,9.37
2022-11-17T11:01:31.988Z,8.83
2022-11-17T11:04:02.091Z,9.43
2022-11-17T11:06:35.206Z,13.80
2022-11-17T11:09:07.554Z,10.50
2022-11-17T11:11:48.152Z,16.53
2022-11-17T11:14:27.411Z,10.23
2022-11-17T11:16:57.579Z,11.17
2022-11-17T11:19:27.298Z,10.93
2022-11-17T11:22:16.942Z,16.00
2022-11-17T11:24:54.533Z,11.67
2022-11-17T11:27:34.198Z,9.00
2022-11-17T11:30:06.549Z,9.60
2022-11-17T11:32:44.042Z,9.90
2022-11-17T11:35:36.614Z,12.67
2022-11-17T11:38:17.743Z,9.63
2022-11-17T11:40:57.662Z,9.93
2022-11-17T11:43:34.309Z,7.50
2022-11-17T11:46:11.395Z,8.70
2022-11-17T11:48:43.487Z,10.77
2022-11-17T11:51:18.162Z,9.60
2022-11-17T11:53:53.476Z,11.17
2022-11-17T11:56:25.660Z,10.40
2022-11-17T11:58:59.277Z,18.47
2022-11-17T12:01:29.782Z,28.90
2022-11-17T12:04:10.529Z,13.30
2022-11-17T12:06:46.124Z,12.37
2022-11-17T12:09:47.242Z,8.80
2022-11-17T12:12:18.818Z,15.30
2022-11-17T12:15:10.110Z,10.73
2022-11-17T12:17:40.232Z,10.30
2022-11-17T12:20:52.180Z,9.60
2022-11-17T12:23:37.546Z,9.33
2022-11-17T12:26:10.483Z,9.97
2022-11-17T12:28:41.061Z,10.53
2022-11-17T12:31:12.635Z,8.77
2022-11-17T12:34:17.758Z,9.93
2022-11-17T12:37:30.746Z,9.40
2022-11-17T12:40:10.754Z,9.60
2022-11-17T12:43:22.239Z,9.90
2022-11-17T12:46:26.326Z,10.10
2022-11-17T12:49:01.333Z,12.53
2022-11-17T12:51:37.980Z,11.23
2022-11-17T12:54:20.741Z,11.70
2022-11-17T12:56:56.719Z,12.47
2022-11-17T12:59:41.969Z,11.47
2022-11-17T13:02:21.304Z,10.83
2022-11-17T13:04:52.941Z,11.33
2022-11-17T13:07:25.577Z,12.80
2022-11-17T13:09:57.076Z,10.93
2022-11-17T13:12:27.970Z,12.70
2022-11-17T13:15:02.817Z,11.00
2022-11-17T13:17:36.019Z,12.23
2022-11-17T13:20:07.969Z,12.80
2022-11-17T13:22:41.812Z,12.63
2022-11-17T13:25:24.617Z,12.13
2022-11-17T13:27:58.497Z,12.57
2022-11-17T13:30:34.816Z,13.10
2022-11-17T13:33:05.389Z,11.40
2022-11-17T13:35:37.287Z,11.60
2022-11-17T13:38:09.469Z,11.57
2022-11-17T13:40:39.913Z,11.30
2022-11-17T13:43:14.381Z,11.40
2022-11-17T13:45:47.330Z,11.13
2022-11-17T13:48:35.123Z,13.13
2022-11-17T13:51:24.904Z,11.13
2022-11-17T13:53:57.062Z,12.07
2022-11-17T13:56:28.758Z,13.00
2022-11-17T13:58:58.799Z,13.37
2022-11-17T14:01:33.421Z,9.20
2022-11-17T14:04:20.143Z,11.90
2022-11-17T14:06:58.264Z,11.80
2022-11-17T14:09:28.733Z,12.23
2022-11-17T14:11:58.667Z,12.80
2022-11-17T14:14:37.250Z,12.50
2022-11-17T14:17:22.743Z,13.07
2022-11-17T14:19:52.282Z,10.73
2022-11-17T14:22:31.414Z,11.20
2022-11-17T14:25:01.513Z,11.90
2022-11-17T14:27:42.319Z,12.47
2022-11-17T14:30:14.931Z,11.07
2022-11-17T14:32:47.116Z,11.57
2022-11-17T14:37:47.592Z,11.03
2022-11-17T14:40:17.829Z,11.83
2022-11-17T14:42:47.314Z,11.57
2022-11-17T14:45:17.815Z,12.10
2022-11-17T14:47:50.095Z,10.47
2022-11-17T14:50:20.128Z,11.50
2022-11-17T14:52:49.635Z,10.20
2022-11-17T14:55:19.686Z,13.27
2022-11-17T14:57:50.422Z,14.07
2022-11-17T15:00:21.429Z,10.53
2022-11-17T15:02:54.273Z,18.57
2022-11-17T15:05:23.905Z,13.23
2022-11-17T15:07:53.426Z,12.70
2022-11-17T15:10:23.329Z,12.03
2022-11-17T15:12:52.879Z,11.77
2022-11-17T15:15:22.613Z,12.60
2022-11-17T15:17:54.755Z,10.63
2022-11-17T15:20:24.217Z,11.67
2022-11-17T15:22:54.581Z,10.83
2022-11-17T15:25:26.348Z,9.80
2022-11-17T15:27:56.311Z,10.27
2022-11-17T15:30:26.053Z,10.10
2022-11-17T15:33:01.185Z,11.60
2022-11-17T15:35:30.667Z,9.37
2022-11-17T15:38:00.189Z,10.40
2022-11-17T15:40:29.684Z,9.70
2022-11-17T15:42:59.203Z,10.10
2022-11-17T15:45:28.874Z,11.00
2022-11-17T15:48:00.949Z,50.67
2022-11-17T15:50:30.512Z,30.30
2022-11-17T15:53:04.520Z,12.70
2022-11-17T15:55:36.643Z,21.27
2022-11-17T15:58:06.201Z,12.33
2022-11-17T16:00:36.038Z,12.63
2022-11-17T16:03:08.355Z,11.83
2022-11-17T16:05:37.888Z,17.90
2022-11-17T16:08:07.822Z,10.17
2022-11-17T16:10:37.459Z,10.70
2022-11-17T16:13:07.025Z,14.50
2022-11-17T16:15:36.580Z,12.90
2022-11-17T16:18:09.068Z,12.17
2022-11-17T16:20:38.648Z,14.10
2022-11-17T16:23:08.186Z,16.93
2022-11-17T16:25:42.564Z,13.97
2022-11-17T16:28:13.234Z,11.73
2022-11-17T16:30:43.263Z,12.97
2022-11-17T16:33:16.867Z,9.97
2022-11-17T16:35:46.442Z,12.37
2022-11-17T16:38:16.976Z,12.60
2022-11-17T16:40:46.630Z,11.50
2022-11-17T16:43:16.519Z,10.63
2022-11-17T16:45:47.665Z,10.63
2022-11-17T16:48:19.801Z,11.00
2022-11-17T16:50:49.638Z,12.50
2022-11-17T16:53:19.205Z,9.10
2022-11-17T16:55:48.776Z,10.27
2022-11-17T16:58:18.368Z,10.30
2022-11-17T17:00:48.181Z,11.07
2022-11-17T17:03:22.159Z,9.90
2022-11-17T17:05:51.806Z,10.60
2022-11-17T17:08:21.200Z,26.53
2022-11-17T17:10:50.714Z,75.57
2022-11-17T17:13:20.237Z,25.80
2022-11-17T17:15:49.850Z,14.30
2022-11-17T17:18:22.061Z,15.50
2022-11-17T17:20:53.193Z,10.77
2022-11-17T17:23:22.763Z,16.43
2022-11-17T17:25:52.225Z,10.77
2022-11-17T17:28:21.751Z,11.63
2022-11-17T17:30:56.439Z,10.83
2022-11-17T17:33:28.613Z,9.17
2022-11-17T17:35:58.135Z,13.37
2022-11-17T17:38:27.853Z,12.80
2022-11-17T17:40:57.434Z,11.30
2022-11-17T17:43:27.075Z,13.00
2022-11-17T17:46:01.958Z,12.60
2022-11-17T17:48:34.803Z,9.80
2022-11-17T17:51:04.986Z,12.30
2022-11-17T17:53:34.625Z,13.67
2022-11-17T17:56:06.003Z,12.27
2022-11-17T17:58:40.368Z,11.47
2022-11-17T18:01:11.798Z,13.70
2022-11-17T18:03:45.897Z,14.00
2022-11-17T18:06:15.816Z,12.20
2022-11-17T18:08:45.673Z,14.83
2022-11-17T18:11:17.084Z,11.50
2022-11-17T18:13:47.676Z,12.27
2022-11-17T18:16:19.582Z,12.10
2022-11-17T18:18:52.346Z,10.70
2022-11-17T18:21:22.177Z,12.03
2022-11-17T18:23:51.795Z,11.97
2022-11-17T18:26:23.383Z,12.37
2022-11-17T18:28:54.705Z,13.70
2022-11-17T18:31:25.217Z,11.13
2022-11-17T18:33:59.213Z,12.03
2022-11-17T18:36:30.001Z,12.27
2022-11-17T18:39:00.261Z,11.60
2022-11-17T18:41:32.204Z,11.63
2022-11-17T18:44:01.655Z,11.53
2022-11-17T18:46:33.126Z,11.37
2022-11-17T18:49:05.275Z,11.50
2022-11-17T18:51:35.993Z,12.50
2022-11-17T18:54:05.965Z,12.93
2022-11-17T18:56:38.003Z,11.07
2022-11-17T18:59:12.541Z,12.67
2022-11-17T19:01:43.616Z,12.17
2022-11-17T19:04:16.765Z,12.17
2022-11-17T19:06:46.719Z,11.63
2022-11-17T19:09:17.903Z,9.97
2022-11-17T19:11:47.741Z,10.50
2022-11-17T19:14:17.248Z,10.43
2022-11-17T19:16:46.937Z,10.20
2022-11-17T19:19:19.590Z,11.20
2022-11-17T19:21:49.712Z,12.13
2022-11-17T19:24:19.676Z,9.67
2022-11-17T19:26:49.251Z,10.67
2022-11-17T19:29:20.230Z,9.83
2022-11-17T19:31:52.432Z,9.67
2022-11-17T19:34:24.700Z,9.57
2022-11-17T19:36:54.210Z,9.60
2022-11-17T19:39:23.630Z,11.00
2022-11-17T19:41:53.867Z,10.57
2022-11-17T19:44:23.308Z,11.20
2022-11-17T19:46:52.792Z,10.20
2022-11-17T19:49:24.965Z,10.50
2022-11-17T19:51:54.523Z,10.70
2022-11-17T19:54:24.014Z,11.40
2022-11-17T19:56:53.510Z,10.37
2022-11-17T19:59:23.189Z,9.83
2022-11-17T20:01:53.087Z,10.90
2022-11-17T20:04:25.266Z,10.07
2022-11-17T20:06:55.440Z,10.93
2022-11-17T20:09:25.345Z,12.17
2022-11-17T20:11:54.874Z,11.23
2022-11-17T20:14:24.354Z,24.77
2022-11-17T20:16:53.880Z,12.97
2022-11-17T20:19:25.959Z,19.33
2022-11-17T20:21:55.460Z,12.40
2022-11-17T20:24:24.953Z,28.27
2022-11-17T20:26:54.405Z,13.57
2022-11-17T20:29:23.856Z,12.13
2022-11-17T20:31:53.394Z,18.60
2022-11-17T20:34:22.801Z,14.67
2022-11-17T20:36:54.843Z,10.57
2022-11-17T20:39:24.241Z,9.67
2022-11-17T20:41:53.767Z,10.90
2022-11-17T20:44:28.769Z,9.80
2022-11-17T20:46:58.583Z,9.67
2022-11-17T20:49:28.900Z,7.20
2022-11-17T20:52:01.017Z,10.00
2022-11-17T20:54:30.504Z,10.40
2022-11-17T20:57:00.006Z,11.00
2022-11-17T20:59:29.477Z,10.73
2022-11-17T21:01:59.103Z,10.70
2022-11-17T21:04:28.550Z,18.27
2022-11-17T21:06:58.115Z,10.40
2022-11-17T21:09:30.239Z,10.40
2022-11-17T21:12:00.152Z,10.47
2022-11-17T21:14:30.648Z,10.87
2022-11-17T21:17:00.585Z,10.93
2022-11-17T21:19:33.238Z,10.77
2022-11-17T21:22:04.905Z,19.60
2022-11-17T21:24:36.971Z,9.97
2022-11-17T21:27:06.646Z,11.40
2022-11-17T21:29:36.152Z,11.60
2022-11-17T21:32:05.697Z,15.20
2022-11-17T21:34:35.314Z,11.20
2022-11-17T21:37:04.801Z,11.10
2022-11-17T21:39:37.659Z,12.10
2022-11-17T21:42:07.306Z,12.70
2022-11-17T21:44:36.735Z,11.57
2022-11-17T21:47:07.881Z,12.93
2022-11-17T21:49:37.298Z,12.23
2022-11-17T21:52:07.111Z,12.00
2022-11-17T21:54:39.295Z,13.43
2022-11-17T21:57:08.809Z,13.53
2022-11-17T21:59:38.309Z,13.25
2022-11-17T22:02:07.814Z,12.95
2022-11-17T22:04:37.233Z,14.30
2022-11-17T22:07:06.955Z,13.07
2022-11-17T22:09:39.433Z,13.10
2022-11-17T22:12:09.561Z,14.60
2022-11-17T22:14:39.061Z,13.00
2022-11-17T22:17:08.548Z,14.82
2022-11-17T22:19:38.038Z,14.07
2022-11-17T22:22:08.160Z,16.17
2022-11-17T22:24:40.529Z,17.43
2022-11-17T22:27:11.124Z,17.10
2022-11-17T22:29:40.601Z,13.97
2022-11-17T22:32:10.093Z,14.38
2022-11-17T22:34:39.579Z,14.43
2022-11-17T22:37:09.113Z,13.45
2022-11-17T22:39:41.461Z,14.43
2022-11-17T22:42:11.002Z,15.03
2022-11-17T22:44:40.513Z,15.02
2022-11-17T22:47:09.942Z,13.47
2022-11-17T22:49:39.382Z,14.40
2022-11-17T22:52:10.336Z,15.60
2022-11-17T22:54:42.557Z,15.60
2022-11-17T22:57:12.196Z,12.10
2022-11-17T22:59:41.724Z,15.25
2022-11-17T23:02:11.212Z,14.97
2022-11-17T23:04:40.773Z,15.23
2022-11-17T23:07:10.883Z,13.63
2022-11-17T23:09:43.320Z,15.27
2022-11-17T23:12:12.847Z,14.53
2022-11-17T23:14:42.418Z,13.30
2022-11-17T23:17:12.000Z,14.40
2022-11-17T23:19:41.578Z,14.65
2022-11-17T23:22:11.795Z,15.20
2022-11-17T23:24:43.843Z,13.90
2022-11-17T23:27:13.387Z,14.40
2022-11-17T23:29:42.814Z,14.23
2022-11-17T23:32:12.342Z,14.18
2022-11-17T23:34:42.097Z,13.80
2022-11-17T23:37:11.600Z,12.55
2022-11-17T23:39:44.410Z,14.40
2022-11-17T23:42:14.304Z,15.10
2022-11-17T23:44:43.794Z,12.77
2022-11-17T23:47:13.459Z,14.05
2022-11-17T23:49:42.996Z,14.27
2022-11-17T23:52:12.478Z,13.38
2022-11-17T23:54:44.597Z,13.25
2022-11-17T23:57:14.066Z,15.32
2022-11-17T23:59:43.638Z,15.23
